sensor_id;sensor_type;location;lat;lon;timestamp;temperature;humidity
10270;DHT22;70826;50.930;5.334;2024-01-30T00:00:59;19.40;66.00
10270;DHT22;70826;50.930;5.334;2024-01-30T00:03:25;19.40;66.00
10270;DHT22;70826;50.930;5.334;2024-01-30T00:05:57;19.40;66.00
10270;DHT22;70826;50.930;5.334;2024-01-30T00:08:26;19.40;66.00
10270;DHT22;70826;50.930;5.334;2024-01-30T00:10:56;19.40;66.00
10270;DHT22;70826;50.930;5.334;2024-01-30T00:13:22;19.40;66.00
10270;DHT22;70826;50.930;5.334;2024-01-30T00:15:50;19.40;66.00
10270;DHT22;70826;50.930;5.334;2024-01-30T00:18:16;19.40;66.00
10270;DHT22;70826;50.930;5.334;2024-01-30T00:20:44;19.40;66.00
10270;DHT22;70826;50.930;5.334;2024-01-30T00:23:10;19.40;66.00
10270;DHT22;70826;50.930;5.334;2024-01-30T00:25:35;19.40;66.00
10270;DHT22;70826;50.930;5.334;2024-01-30T00:28:03;19.40;66.00
10270;DHT22;70826;50.930;5.334;2024-01-30T00:30:29;19.40;66.00
10270;DHT22;70826;50.930;5.334;2024-01-30T00:32:55;19.40;66.00
10270;DHT22;70826;50.930;5.334;2024-01-30T00:35:25;19.40;66.00
10270;DHT22;70826;50.930;5.334;2024-01-30T00:37:57;19.40;66.00
10270;DHT22;70826;50.930;5.334;2024-01-30T00:40:22;19.40;66.00
10270;DHT22;70826;50.930;5.334;2024-01-30T00:42:50;19.40;66.00
10270;DHT22;70826;50.930;5.334;2024-01-30T00:45:21;19.40;66.00
10270;DHT22;70826;50.930;5.334;2024-01-30T00:47:49;19.40;65.90
10270;DHT22;70826;50.930;5.334;2024-01-30T00:50:15;19.40;66.00
10270;DHT22;70826;50.930;5.334;2024-01-30T00:52:43;19.40;66.00
10270;DHT22;70826;50.930;5.334;2024-01-30T00:55:10;19.40;66.00
10270;DHT22;70826;50.930;5.334;2024-01-30T00:57:36;19.40;66.00
10270;DHT22;70826;50.930;5.334;2024-01-30T01:00:05;19.30;65.90
10270;DHT22;70826;50.930;5.334;2024-01-30T01:02:39;19.40;66.10
10270;DHT22;70826;50.930;5.334;2024-01-30T01:05:07;19.40;66.00
10270;DHT22;70826;50.930;5.334;2024-01-30T01:07:36;19.40;66.00
10270;DHT22;70826;50.930;5.334;2024-01-30T01:10:06;19.30;65.90
10270;DHT22;70826;50.930;5.334;2024-01-30T01:12:36;19.30;65.90
10270;DHT22;70826;50.930;5.334;2024-01-30T01:15:04;19.30;65.90
10270;DHT22;70826;50.930;5.334;2024-01-30T01:17:30;19.30;65.90
10270;DHT22;70826;50.930;5.334;2024-01-30T01:19:59;19.30;65.90
10270;DHT22;70826;50.930;5.334;2024-01-30T01:22:27;19.30;65.90
10270;DHT22;70826;50.930;5.334;2024-01-30T01:24:56;19.30;65.90
10270;DHT22;70826;50.930;5.334;2024-01-30T01:27:22;19.30;65.90
10270;DHT22;70826;50.930;5.334;2024-01-30T01:29:54;19.30;65.90
10270;DHT22;70826;50.930;5.334;2024-01-30T01:32:22;19.30;65.90
10270;DHT22;70826;50.930;5.334;2024-01-30T01:34:48;19.30;65.90
10270;DHT22;70826;50.930;5.334;2024-01-30T01:37:19;19.30;65.90
10270;DHT22;70826;50.930;5.334;2024-01-30T01:39:47;19.30;65.90
10270;DHT22;70826;50.930;5.334;2024-01-30T01:42:20;19.30;65.90
10270;DHT22;70826;50.930;5.334;2024-01-30T01:44:48;19.30;65.90
10270;DHT22;70826;50.930;5.334;2024-01-30T01:47:18;19.30;65.90
10270;DHT22;70826;50.930;5.334;2024-01-30T01:49:50;19.30;65.90
10270;DHT22;70826;50.930;5.334;2024-01-30T01:52:18;19.30;65.90
10270;DHT22;70826;50.930;5.334;2024-01-30T01:54:43;19.30;65.90
10270;DHT22;70826;50.930;5.334;2024-01-30T01:57:09;19.30;65.90
10270;DHT22;70826;50.930;5.334;2024-01-30T01:59:36;19.30;65.90
10270;DHT22;70826;50.930;5.334;2024-01-30T02:02:04;19.30;65.90
10270;DHT22;70826;50.930;5.334;2024-01-30T02:04:34;19.30;65.90
10270;DHT22;70826;50.930;5.334;2024-01-30T02:07:02;19.30;65.90
10270;DHT22;70826;50.930;5.334;2024-01-30T02:09:31;19.30;65.90
10270;DHT22;70826;50.930;5.334;2024-01-30T02:11:59;19.30;66.10
10270;DHT22;70826;50.930;5.334;2024-01-30T02:14:27;19.30;65.90
10270;DHT22;70826;50.930;5.334;2024-01-30T02:16:55;19.30;65.90
10270;DHT22;70826;50.930;5.334;2024-01-30T02:19:26;19.30;65.90
10270;DHT22;70826;50.930;5.334;2024-01-30T02:21:52;19.30;66.00
10270;DHT22;70826;50.930;5.334;2024-01-30T02:24:20;19.30;65.90
10270;DHT22;70826;50.930;5.334;2024-01-30T02:26:48;19.30;65.90
10270;DHT22;70826;50.930;5.334;2024-01-30T02:29:14;19.30;65.90
10270;DHT22;70826;50.930;5.334;2024-01-30T02:31:44;19.30;65.90
10270;DHT22;70826;50.930;5.334;2024-01-30T02:34:13;19.30;66.00
10270;DHT22;70826;50.930;5.334;2024-01-30T02:36:42;19.30;66.00
10270;DHT22;70826;50.930;5.334;2024-01-30T02:39:09;19.30;65.90
10270;DHT22;70826;50.930;5.334;2024-01-30T02:41:37;19.30;65.90
10270;DHT22;70826;50.930;5.334;2024-01-30T02:44:06;19.30;66.00
10270;DHT22;70826;50.930;5.334;2024-01-30T02:46:34;19.30;65.90
10270;DHT22;70826;50.930;5.334;2024-01-30T02:49:04;19.30;65.50
10270;DHT22;70826;50.930;5.334;2024-01-30T02:51:32;19.30;65.90
10270;DHT22;70826;50.930;5.334;2024-01-30T02:54:00;19.30;66.00
10270;DHT22;70826;50.930;5.334;2024-01-30T02:56:30;19.30;66.00
10270;DHT22;70826;50.930;5.334;2024-01-30T02:58:56;19.30;66.00
10270;DHT22;70826;50.930;5.334;2024-01-30T03:01:21;19.30;66.00
10270;DHT22;70826;50.930;5.334;2024-01-30T03:03:47;19.30;66.00
10270;DHT22;70826;50.930;5.334;2024-01-30T03:06:13;19.30;66.00
10270;DHT22;70826;50.930;5.334;2024-01-30T03:08:42;19.30;66.00
10270;DHT22;70826;50.930;5.334;2024-01-30T03:11:08;19.30;66.00
10270;DHT22;70826;50.930;5.334;2024-01-30T03:13:34;19.30;66.00
10270;DHT22;70826;50.930;5.334;2024-01-30T03:16:02;19.30;66.10
10270;DHT22;70826;50.930;5.334;2024-01-30T03:18:34;19.30;66.10
10270;DHT22;70826;50.930;5.334;2024-01-30T03:21:04;19.30;66.00
10270;DHT22;70826;50.930;5.334;2024-01-30T03:23:32;19.30;66.10
10270;DHT22;70826;50.930;5.334;2024-01-30T03:25:58;19.30;66.10
10270;DHT22;70826;50.930;5.334;2024-01-30T03:28:26;19.30;66.10
10270;DHT22;70826;50.930;5.334;2024-01-30T03:30:56;19.30;66.10
10270;DHT22;70826;50.930;5.334;2024-01-30T03:33:22;19.20;66.10
10270;DHT22;70826;50.930;5.334;2024-01-30T03:35:50;19.30;66.10
10270;DHT22;70826;50.930;5.334;2024-01-30T03:38:18;19.20;66.10
10270;DHT22;70826;50.930;5.334;2024-01-30T03:40:48;19.20;66.10
10270;DHT22;70826;50.930;5.334;2024-01-30T03:43:14;19.20;66.10
10270;DHT22;70826;50.930;5.334;2024-01-30T03:45:49;19.20;66.10
10270;DHT22;70826;50.930;5.334;2024-01-30T03:48:14;19.20;66.20
10270;DHT22;70826;50.930;5.334;2024-01-30T03:50:40;19.30;66.20
10270;DHT22;70826;50.930;5.334;2024-01-30T03:53:06;19.20;66.20
10270;DHT22;70826;50.930;5.334;2024-01-30T03:55:33;19.20;66.10
10270;DHT22;70826;50.930;5.334;2024-01-30T03:57:59;19.30;66.20
10270;DHT22;70826;50.930;5.334;2024-01-30T04:00:29;19.20;66.20
10270;DHT22;70826;50.930;5.334;2024-01-30T04:02:57;19.20;66.20
10270;DHT22;70826;50.930;5.334;2024-01-30T04:05:25;19.20;66.30
10270;DHT22;70826;50.930;5.334;2024-01-30T04:07:50;19.20;66.20
10270;DHT22;70826;50.930;5.334;2024-01-30T04:10:18;19.30;66.30
10270;DHT22;70826;50.930;5.334;2024-01-30T04:12:47;19.20;66.30
10270;DHT22;70826;50.930;5.334;2024-01-30T04:15:15;19.20;66.30
10270;DHT22;70826;50.930;5.334;2024-01-30T04:17:43;19.20;66.30
10270;DHT22;70826;50.930;5.334;2024-01-30T04:20:16;19.20;66.30
10270;DHT22;70826;50.930;5.334;2024-01-30T04:22:45;19.20;66.30
10270;DHT22;70826;50.930;5.334;2024-01-30T04:25:13;19.30;66.30
10270;DHT22;70826;50.930;5.334;2024-01-30T04:27:42;19.20;66.30
10270;DHT22;70826;50.930;5.334;2024-01-30T04:30:10;19.20;66.30
10270;DHT22;70826;50.930;5.334;2024-01-30T04:32:37;19.20;66.30
10270;DHT22;70826;50.930;5.334;2024-01-30T04:35:05;19.20;66.30
10270;DHT22;70826;50.930;5.334;2024-01-30T04:37:33;19.30;66.40
10270;DHT22;70826;50.930;5.334;2024-01-30T04:39:59;19.20;66.30
10270;DHT22;70826;50.930;5.334;2024-01-30T04:42:28;19.20;66.30
10270;DHT22;70826;50.930;5.334;2024-01-30T04:44:54;19.20;66.30
10270;DHT22;70826;50.930;5.334;2024-01-30T04:47:22;19.20;66.40
10270;DHT22;70826;50.930;5.334;2024-01-30T04:49:47;19.20;66.40
10270;DHT22;70826;50.930;5.334;2024-01-30T04:52:15;19.20;66.40
10270;DHT22;70826;50.930;5.334;2024-01-30T04:54:43;19.20;66.40
10270;DHT22;70826;50.930;5.334;2024-01-30T04:57:09;19.20;66.40
10270;DHT22;70826;50.930;5.334;2024-01-30T04:59:37;19.20;66.40
10270;DHT22;70826;50.930;5.334;2024-01-30T05:02:03;19.20;66.40
10270;DHT22;70826;50.930;5.334;2024-01-30T05:04:31;19.20;66.40
10270;DHT22;70826;50.930;5.334;2024-01-30T05:06:56;19.20;66.40
10270;DHT22;70826;50.930;5.334;2024-01-30T05:09:26;19.20;66.40
10270;DHT22;70826;50.930;5.334;2024-01-30T05:11:57;19.20;66.40
10270;DHT22;70826;50.930;5.334;2024-01-30T05:14:28;19.20;66.40
10270;DHT22;70826;50.930;5.334;2024-01-30T05:16:58;19.20;66.50
10270;DHT22;70826;50.930;5.334;2024-01-30T05:19:33;19.20;66.50
10270;DHT22;70826;50.930;5.334;2024-01-30T05:22:01;19.20;66.50
10270;DHT22;70826;50.930;5.334;2024-01-30T05:24:26;19.20;66.50
10270;DHT22;70826;50.930;5.334;2024-01-30T05:26:52;19.20;66.50
10270;DHT22;70826;50.930;5.334;2024-01-30T05:29:20;19.20;66.50
10270;DHT22;70826;50.930;5.334;2024-01-30T05:31:46;19.20;66.50
10270;DHT22;70826;50.930;5.334;2024-01-30T05:34:14;19.20;66.60
10270;DHT22;70826;50.930;5.334;2024-01-30T05:36:42;19.20;66.50
10270;DHT22;70826;50.930;5.334;2024-01-30T05:39:10;19.20;66.60
10270;DHT22;70826;50.930;5.334;2024-01-30T05:41:38;19.20;66.60
10270;DHT22;70826;50.930;5.334;2024-01-30T05:44:06;19.20;66.60
10270;DHT22;70826;50.930;5.334;2024-01-30T05:46:34;19.20;66.60
10270;DHT22;70826;50.930;5.334;2024-01-30T05:49:00;19.20;66.50
10270;DHT22;70826;50.930;5.334;2024-01-30T05:51:28;19.20;66.50
10270;DHT22;70826;50.930;5.334;2024-01-30T05:53:56;19.20;66.60
10270;DHT22;70826;50.930;5.334;2024-01-30T05:56:22;19.20;66.60
10270;DHT22;70826;50.930;5.334;2024-01-30T05:58:50;19.20;66.60
10270;DHT22;70826;50.930;5.334;2024-01-30T06:01:16;19.20;66.60
10270;DHT22;70826;50.930;5.334;2024-01-30T06:03:46;19.20;66.70
10270;DHT22;70826;50.930;5.334;2024-01-30T06:06:14;19.20;66.60
10270;DHT22;70826;50.930;5.334;2024-01-30T06:08:42;19.20;66.60
10270;DHT22;70826;50.930;5.334;2024-01-30T06:11:12;19.20;66.70
10270;DHT22;70826;50.930;5.334;2024-01-30T06:13:40;19.20;66.70
10270;DHT22;70826;50.930;5.334;2024-01-30T06:16:13;19.20;66.70
10270;DHT22;70826;50.930;5.334;2024-01-30T06:18:39;19.20;66.70
10270;DHT22;70826;50.930;5.334;2024-01-30T06:21:07;19.20;66.70
10270;DHT22;70826;50.930;5.334;2024-01-30T06:23:33;19.20;66.70
10270;DHT22;70826;50.930;5.334;2024-01-30T06:26:03;19.20;66.70
10270;DHT22;70826;50.930;5.334;2024-01-30T06:28:31;19.20;66.70
10270;DHT22;70826;50.930;5.334;2024-01-30T06:31:01;19.20;66.70
10270;DHT22;70826;50.930;5.334;2024-01-30T06:33:29;19.20;66.70
10270;DHT22;70826;50.930;5.334;2024-01-30T06:35:55;19.20;66.70
10270;DHT22;70826;50.930;5.334;2024-01-30T06:38:23;19.20;66.80
10270;DHT22;70826;50.930;5.334;2024-01-30T06:40:53;19.20;66.80
10270;DHT22;70826;50.930;5.334;2024-01-30T06:43:24;19.20;66.80
10270;DHT22;70826;50.930;5.334;2024-01-30T06:45:50;19.20;66.80
10270;DHT22;70826;50.930;5.334;2024-01-30T06:48:18;19.20;66.80
10270;DHT22;70826;50.930;5.334;2024-01-30T06:50:43;19.20;66.80
10270;DHT22;70826;50.930;5.334;2024-01-30T06:53:11;19.20;66.80
10270;DHT22;70826;50.930;5.334;2024-01-30T06:55:39;19.20;66.80
10270;DHT22;70826;50.930;5.334;2024-01-30T06:58:07;19.20;66.80
10270;DHT22;70826;50.930;5.334;2024-01-30T07:00:35;19.20;66.80
10270;DHT22;70826;50.930;5.334;2024-01-30T07:03:03;19.20;66.80
10270;DHT22;70826;50.930;5.334;2024-01-30T07:05:32;19.20;66.90
10270;DHT22;70826;50.930;5.334;2024-01-30T07:08:00;19.20;66.80
10270;DHT22;70826;50.930;5.334;2024-01-30T07:10:28;19.20;66.90
10270;DHT22;70826;50.930;5.334;2024-01-30T07:12:57;19.20;66.90
10270;DHT22;70826;50.930;5.334;2024-01-30T07:15:25;19.20;66.90
10270;DHT22;70826;50.930;5.334;2024-01-30T07:17:53;19.20;66.90
10270;DHT22;70826;50.930;5.334;2024-01-30T07:20:20;19.20;66.90
10270;DHT22;70826;50.930;5.334;2024-01-30T07:22:46;19.20;66.90
10270;DHT22;70826;50.930;5.334;2024-01-30T07:25:14;19.20;66.90
10270;DHT22;70826;50.930;5.334;2024-01-30T07:27:42;19.20;66.90
10270;DHT22;70826;50.930;5.334;2024-01-30T07:30:12;19.20;66.90
10270;DHT22;70826;50.930;5.334;2024-01-30T07:32:45;19.20;67.00
10270;DHT22;70826;50.930;5.334;2024-01-30T07:35:13;19.20;67.00
10270;DHT22;70826;50.930;5.334;2024-01-30T07:37:44;19.20;67.00
10270;DHT22;70826;50.930;5.334;2024-01-30T07:40:09;19.20;67.00
10270;DHT22;70826;50.930;5.334;2024-01-30T07:42:40;19.20;67.00
10270;DHT22;70826;50.930;5.334;2024-01-30T07:45:08;19.20;67.00
10270;DHT22;70826;50.930;5.334;2024-01-30T07:47:36;19.20;67.00
10270;DHT22;70826;50.930;5.334;2024-01-30T07:50:04;19.20;67.10
10270;DHT22;70826;50.930;5.334;2024-01-30T07:52:33;19.20;67.00
10270;DHT22;70826;50.930;5.334;2024-01-30T07:54:58;19.20;67.10
10270;DHT22;70826;50.930;5.334;2024-01-30T07:57:24;19.20;67.10
10270;DHT22;70826;50.930;5.334;2024-01-30T07:59:50;19.20;67.20
10270;DHT22;70826;50.930;5.334;2024-01-30T08:02:16;19.20;67.10
10270;DHT22;70826;50.930;5.334;2024-01-30T08:04:48;19.20;67.10
10270;DHT22;70826;50.930;5.334;2024-01-30T08:07:20;19.20;67.10
10270;DHT22;70826;50.930;5.334;2024-01-30T08:09:47;19.20;67.10
10270;DHT22;70826;50.930;5.334;2024-01-30T08:12:15;19.20;67.10
10270;DHT22;70826;50.930;5.334;2024-01-30T08:14:45;19.20;67.10
10270;DHT22;70826;50.930;5.334;2024-01-30T08:17:16;19.20;67.50
10270;DHT22;70826;50.930;5.334;2024-01-30T08:19:44;19.20;67.80
10270;DHT22;70826;50.930;5.334;2024-01-30T08:22:09;19.20;68.10
10270;DHT22;70826;50.930;5.334;2024-01-30T08:24:35;19.20;68.30
10270;DHT22;70826;50.930;5.334;2024-01-30T08:27:01;19.30;68.60
10270;DHT22;70826;50.930;5.334;2024-01-30T08:29:30;19.40;68.80
10270;DHT22;70826;50.930;5.334;2024-01-30T08:32:00;19.50;68.90
10270;DHT22;70826;50.930;5.334;2024-01-30T08:34:28;19.60;69.00
10270;DHT22;70826;50.930;5.334;2024-01-30T08:36:56;19.70;69.00
10270;DHT22;70826;50.930;5.334;2024-01-30T08:39:24;19.80;69.10
10270;DHT22;70826;50.930;5.334;2024-01-30T08:41:50;19.80;69.10
10270;DHT22;70826;50.930;5.334;2024-01-30T08:44:15;19.90;69.00
10270;DHT22;70826;50.930;5.334;2024-01-30T08:46:46;20.00;69.00
10270;DHT22;70826;50.930;5.334;2024-01-30T08:49:17;20.10;69.00
10270;DHT22;70826;50.930;5.334;2024-01-30T08:51:50;20.20;69.00
10270;DHT22;70826;50.930;5.334;2024-01-30T08:54:18;20.30;69.00
10270;DHT22;70826;50.930;5.334;2024-01-30T08:56:46;20.40;68.90
10270;DHT22;70826;50.930;5.334;2024-01-30T08:59:14;20.50;68.90
10270;DHT22;70826;50.930;5.334;2024-01-30T09:01:42;20.60;68.80
10270;DHT22;70826;50.930;5.334;2024-01-30T09:04:09;20.70;68.70
10270;DHT22;70826;50.930;5.334;2024-01-30T09:06:40;20.70;68.70
10270;DHT22;70826;50.930;5.334;2024-01-30T09:09:05;20.80;68.70
10270;DHT22;70826;50.930;5.334;2024-01-30T09:11:37;20.90;68.60
10270;DHT22;70826;50.930;5.334;2024-01-30T09:14:05;21.00;68.60
10270;DHT22;70826;50.930;5.334;2024-01-30T09:16:31;21.00;68.50
10270;DHT22;70826;50.930;5.334;2024-01-30T09:18:59;21.10;68.40
10270;DHT22;70826;50.930;5.334;2024-01-30T09:21:26;21.20;68.30
10270;DHT22;70826;50.930;5.334;2024-01-30T09:23:54;21.30;68.30
10270;DHT22;70826;50.930;5.334;2024-01-30T09:26:20;21.30;68.10
10270;DHT22;70826;50.930;5.334;2024-01-30T09:28:45;21.40;68.20
10270;DHT22;70826;50.930;5.334;2024-01-30T09:31:14;21.50;68.10
10270;DHT22;70826;50.930;5.334;2024-01-30T09:33:42;21.50;67.90
10270;DHT22;70826;50.930;5.334;2024-01-30T09:36:15;21.50;67.70
10270;DHT22;70826;50.930;5.334;2024-01-30T09:38:45;21.50;67.60
10270;DHT22;70826;50.930;5.334;2024-01-30T09:41:13;21.40;67.50
10270;DHT22;70826;50.930;5.334;2024-01-30T09:43:48;21.40;67.40
10270;DHT22;70826;50.930;5.334;2024-01-30T09:46:21;21.30;67.30
10270;DHT22;70826;50.930;5.334;2024-01-30T09:48:51;21.30;67.20
10270;DHT22;70826;50.930;5.334;2024-01-30T09:51:17;21.30;67.20
10270;DHT22;70826;50.930;5.334;2024-01-30T09:53:44;21.20;67.10
10270;DHT22;70826;50.930;5.334;2024-01-30T09:56:10;21.20;67.10
10270;DHT22;70826;50.930;5.334;2024-01-30T09:58:36;21.10;67.10
10270;DHT22;70826;50.930;5.334;2024-01-30T10:01:02;21.00;67.10
10270;DHT22;70826;50.930;5.334;2024-01-30T10:03:30;21.00;67.10
10270;DHT22;70826;50.930;5.334;2024-01-30T10:05:58;21.00;67.10
10270;DHT22;70826;50.930;5.334;2024-01-30T10:08:28;20.90;67.00
10270;DHT22;70826;50.930;5.334;2024-01-30T10:10:59;20.90;67.00
10270;DHT22;70826;50.930;5.334;2024-01-30T10:13:25;20.90;67.00
10270;DHT22;70826;50.930;5.334;2024-01-30T10:15:53;20.80;67.00
10270;DHT22;70826;50.930;5.334;2024-01-30T10:18:20;20.80;67.10
10270;DHT22;70826;50.930;5.334;2024-01-30T10:20:52;20.70;67.00
10270;DHT22;70826;50.930;5.334;2024-01-30T10:23:20;20.70;67.00
10270;DHT22;70826;50.930;5.334;2024-01-30T10:25:45;20.60;67.00
10270;DHT22;70826;50.930;5.334;2024-01-30T10:28:11;20.60;67.00
10270;DHT22;70826;50.930;5.334;2024-01-30T10:30:42;20.60;67.00
10270;DHT22;70826;50.930;5.334;2024-01-30T10:33:12;20.60;67.10
10270;DHT22;70826;50.930;5.334;2024-01-30T10:35:42;20.60;67.70
10270;DHT22;70826;50.930;5.334;2024-01-30T10:38:11;20.50;67.10
10270;DHT22;70826;50.930;5.334;2024-01-30T10:40:39;20.50;67.10
10270;DHT22;70826;50.930;5.334;2024-01-30T10:43:07;20.50;67.10
10270;DHT22;70826;50.930;5.334;2024-01-30T10:45:38;20.40;67.10
10270;DHT22;70826;50.930;5.334;2024-01-30T10:48:13;20.40;67.20
10270;DHT22;70826;50.930;5.334;2024-01-30T10:50:42;20.40;67.20
10270;DHT22;70826;50.930;5.334;2024-01-30T10:53:11;20.40;67.20
10270;DHT22;70826;50.930;5.334;2024-01-30T10:55:41;20.30;67.20
10270;DHT22;70826;50.930;5.334;2024-01-30T10:58:12;20.30;67.20
10270;DHT22;70826;50.930;5.334;2024-01-30T11:00:40;20.30;67.30
10270;DHT22;70826;50.930;5.334;2024-01-30T11:03:08;20.30;67.40
10270;DHT22;70826;50.930;5.334;2024-01-30T11:05:40;20.30;67.40
10270;DHT22;70826;50.930;5.334;2024-01-30T11:08:14;20.20;67.40
10270;DHT22;70826;50.930;5.334;2024-01-30T11:10:48;20.20;67.50
10270;DHT22;70826;50.930;5.334;2024-01-30T11:13:15;20.20;67.50
10270;DHT22;70826;50.930;5.334;2024-01-30T11:15:40;20.20;68.10
10270;DHT22;70826;50.930;5.334;2024-01-30T11:18:06;20.20;67.50
10270;DHT22;70826;50.930;5.334;2024-01-30T11:20:32;20.20;67.60
10270;DHT22;70826;50.930;5.334;2024-01-30T11:22:59;20.10;67.60
10270;DHT22;70826;50.930;5.334;2024-01-30T11:25:27;20.10;67.60
10270;DHT22;70826;50.930;5.334;2024-01-30T11:27:58;20.10;67.60
10270;DHT22;70826;50.930;5.334;2024-01-30T11:30:28;20.10;67.60
10270;DHT22;70826;50.930;5.334;2024-01-30T11:33:27;20.10;67.60
10270;DHT22;70826;50.930;5.334;2024-01-30T11:35:53;20.10;67.80
10270;DHT22;70826;50.930;5.334;2024-01-30T11:38:18;20.10;67.60
10270;DHT22;70826;50.930;5.334;2024-01-30T11:40:44;20.10;67.70
10270;DHT22;70826;50.930;5.334;2024-01-30T11:43:11;20.00;67.70
10270;DHT22;70826;50.930;5.334;2024-01-30T11:45:37;20.00;67.70
10270;DHT22;70826;50.930;5.334;2024-01-30T11:48:08;20.00;67.80
10270;DHT22;70826;50.930;5.334;2024-01-30T11:50:40;20.00;67.90
10270;DHT22;70826;50.930;5.334;2024-01-30T11:53:09;20.00;67.80
10270;DHT22;70826;50.930;5.334;2024-01-30T11:55:40;20.00;67.90
10270;DHT22;70826;50.930;5.334;2024-01-30T11:58:06;20.00;67.90
10270;DHT22;70826;50.930;5.334;2024-01-30T12:00:36;20.00;67.90
10270;DHT22;70826;50.930;5.334;2024-01-30T12:03:02;20.00;68.00
10270;DHT22;70826;50.930;5.334;2024-01-30T12:05:33;19.90;68.60
10270;DHT22;70826;50.930;5.334;2024-01-30T12:08:03;19.90;68.00
10270;DHT22;70826;50.930;5.334;2024-01-30T12:10:33;19.90;68.10
10270;DHT22;70826;50.930;5.334;2024-01-30T12:13:01;19.90;68.10
10270;DHT22;70826;50.930;5.334;2024-01-30T12:15:27;19.90;68.00
10270;DHT22;70826;50.930;5.334;2024-01-30T12:18:04;19.90;68.70
10270;DHT22;70826;50.930;5.334;2024-01-30T12:20:33;19.90;68.50
10270;DHT22;70826;50.930;5.334;2024-01-30T12:22:59;19.80;68.70
10270;DHT22;70826;50.930;5.334;2024-01-30T12:25:24;19.90;69.10
10270;DHT22;70826;50.930;5.334;2024-01-30T12:27:52;19.90;69.20
10270;DHT22;70826;50.930;5.334;2024-01-30T12:30:20;19.90;69.40
10270;DHT22;70826;50.930;5.334;2024-01-30T12:32:50;20.00;69.60
10270;DHT22;70826;50.930;5.334;2024-01-30T12:35:21;20.10;69.60
10270;DHT22;70826;50.930;5.334;2024-01-30T12:37:53;20.10;69.60
10270;DHT22;70826;50.930;5.334;2024-01-30T12:40:19;20.20;69.70
10270;DHT22;70826;50.930;5.334;2024-01-30T12:42:47;20.30;69.70
10270;DHT22;70826;50.930;5.334;2024-01-30T12:45:15;20.40;69.70
10270;DHT22;70826;50.930;5.334;2024-01-30T12:47:45;20.50;69.70
10270;DHT22;70826;50.930;5.334;2024-01-30T12:50:13;20.60;69.60
10270;DHT22;70826;50.930;5.334;2024-01-30T12:52:44;20.70;69.60
10270;DHT22;70826;50.930;5.334;2024-01-30T12:55:15;20.80;69.60
10270;DHT22;70826;50.930;5.334;2024-01-30T12:57:46;20.90;69.40
10270;DHT22;70826;50.930;5.334;2024-01-30T13:00:11;21.00;69.40
10270;DHT22;70826;50.930;5.334;2024-01-30T13:02:44;21.10;69.30
10270;DHT22;70826;50.930;5.334;2024-01-30T13:05:10;21.20;69.20
10270;DHT22;70826;50.930;5.334;2024-01-30T13:07:38;21.30;69.10
10270;DHT22;70826;50.930;5.334;2024-01-30T13:10:06;21.40;69.10
10270;DHT22;70826;50.930;5.334;2024-01-30T13:12:32;21.50;69.00
10270;DHT22;70826;50.930;5.334;2024-01-30T13:15:01;21.50;68.80
10270;DHT22;70826;50.930;5.334;2024-01-30T13:17:30;21.60;68.80
10270;DHT22;70826;50.930;5.334;2024-01-30T13:20:00;21.70;68.70
10270;DHT22;70826;50.930;5.334;2024-01-30T13:22:26;21.70;68.50
10270;DHT22;70826;50.930;5.334;2024-01-30T13:24:54;21.80;68.50
10270;DHT22;70826;50.930;5.334;2024-01-30T13:27:20;21.90;68.50
10270;DHT22;70826;50.930;5.334;2024-01-30T13:29:46;21.90;68.40
10270;DHT22;70826;50.930;5.334;2024-01-30T13:32:11;22.00;68.30
10270;DHT22;70826;50.930;5.334;2024-01-30T13:34:41;22.00;68.10
10270;DHT22;70826;50.930;5.334;2024-01-30T13:37:09;22.00;67.90
10270;DHT22;70826;50.930;5.334;2024-01-30T13:39:38;21.90;67.80
10270;DHT22;70826;50.930;5.334;2024-01-30T13:42:04;21.90;67.60
10270;DHT22;70826;50.930;5.334;2024-01-30T13:44:34;21.80;67.50
10270;DHT22;70826;50.930;5.334;2024-01-30T13:47:00;21.80;67.40
10270;DHT22;70826;50.930;5.334;2024-01-30T13:49:28;21.70;67.30
10270;DHT22;70826;50.930;5.334;2024-01-30T13:51:58;21.70;67.20
10270;DHT22;70826;50.930;5.334;2024-01-30T13:54:24;21.60;67.20
10270;DHT22;70826;50.930;5.334;2024-01-30T13:56:52;21.50;67.10
10270;DHT22;70826;50.930;5.334;2024-01-30T13:59:18;21.50;67.10
10270;DHT22;70826;50.930;5.334;2024-01-30T14:01:51;21.40;67.00
10270;DHT22;70826;50.930;5.334;2024-01-30T14:04:19;21.40;67.00
10270;DHT22;70826;50.930;5.334;2024-01-30T14:06:47;21.30;66.90
10270;DHT22;70826;50.930;5.334;2024-01-30T14:09:15;21.30;66.80
10270;DHT22;70826;50.930;5.334;2024-01-30T14:11:41;21.30;66.70
10270;DHT22;70826;50.930;5.334;2024-01-30T14:14:07;21.20;66.70
10270;DHT22;70826;50.930;5.334;2024-01-30T14:16:37;21.20;66.60
10270;DHT22;70826;50.930;5.334;2024-01-30T14:19:07;21.10;66.50
10270;DHT22;70826;50.930;5.334;2024-01-30T14:21:35;21.10;66.50
10270;DHT22;70826;50.930;5.334;2024-01-30T14:24:05;21.10;66.50
10270;DHT22;70826;50.930;5.334;2024-01-30T14:26:31;21.00;66.40
10270;DHT22;70826;50.930;5.334;2024-01-30T14:28:59;21.00;66.40
10270;DHT22;70826;50.930;5.334;2024-01-30T14:31:25;21.00;66.40
10270;DHT22;70826;50.930;5.334;2024-01-30T14:33:52;20.90;66.30
10270;DHT22;70826;50.930;5.334;2024-01-30T14:36:18;20.90;66.30
10270;DHT22;70826;50.930;5.334;2024-01-30T14:38:46;20.90;66.30
10270;DHT22;70826;50.930;5.334;2024-01-30T14:41:14;20.90;66.20
10270;DHT22;70826;50.930;5.334;2024-01-30T14:43:40;20.80;66.20
10270;DHT22;70826;50.930;5.334;2024-01-30T14:46:08;20.80;66.80
10270;DHT22;70826;50.930;5.334;2024-01-30T14:48:38;20.80;66.20
10270;DHT22;70826;50.930;5.334;2024-01-30T14:51:06;20.70;66.10
10270;DHT22;70826;50.930;5.334;2024-01-30T14:53:34;20.70;66.10
10270;DHT22;70826;50.930;5.334;2024-01-30T14:56:02;20.70;66.10
10270;DHT22;70826;50.930;5.334;2024-01-30T14:58:28;20.60;66.00
10270;DHT22;70826;50.930;5.334;2024-01-30T15:00:54;20.60;66.10
10270;DHT22;70826;50.930;5.334;2024-01-30T15:03:22;20.60;66.10
10270;DHT22;70826;50.930;5.334;2024-01-30T15:05:50;20.60;66.10
10270;DHT22;70826;50.930;5.334;2024-01-30T15:08:15;20.50;66.00
10270;DHT22;70826;50.930;5.334;2024-01-30T15:10:41;20.50;66.00
10270;DHT22;70826;50.930;5.334;2024-01-30T15:13:09;20.50;66.00
10270;DHT22;70826;50.930;5.334;2024-01-30T15:15:36;20.50;66.00
10270;DHT22;70826;50.930;5.334;2024-01-30T15:18:04;20.50;66.00
10270;DHT22;70826;50.930;5.334;2024-01-30T15:20:30;20.40;65.90
10270;DHT22;70826;50.930;5.334;2024-01-30T15:22:59;20.40;66.00
10270;DHT22;70826;50.930;5.334;2024-01-30T15:25:28;20.40;65.90
10270;DHT22;70826;50.930;5.334;2024-01-30T15:27:57;20.40;65.90
10270;DHT22;70826;50.930;5.334;2024-01-30T15:30:25;20.40;65.90
10270;DHT22;70826;50.930;5.334;2024-01-30T15:32:50;20.40;65.90
10270;DHT22;70826;50.930;5.334;2024-01-30T15:35:19;20.40;65.90